Aeroporto :
LOGIN :

Iscrizione | Disclaimer

   EN    FR    IT 

 










Sommario :    VFR   VFR Marginale   IFR   IFR Intensivo   IFR Molto Intensivo
Visibilità : 
Base nubi : 
>= 8 km
>= 3000ft
5 / 8 km
1000 / 3000 ft
1500m / 5 km
500 / 1000 ft
800 / 1500m
200 / 500 ft
< 800m
< 200 ft
Simboli :   Temporali  Nebbia  Neve Forte  Precipitazioni Forti  Vento > 20 kt
SIGMETs :   Varie  Temporali  Ghiacco  Turbolenza  Onda orograficha  Ceneri Vulcaniche






- Altitudine del aeroporto : 989 ft
- Codice IATA : TRN


LIMF - Torino Caselle

ULTIMO METAR :
  • 212250Z 33003KT 6000 -DZ OVC007 16/16 Q1023

METARs OBSOLETI :
  • 212220Z 29003KT 5000 BR BKN007 OVC020 16/16 Q1023
  • 212150Z 30003KT 5000 BR BKN007 OVC020 16/16 Q1022
  • 212120Z VRB01KT 6000 BKN007 OVC020 16/16 Q1022
  • 212050Z VRB02KT 7000 BKN009 OVC030 16/16 Q1022
  • 212020Z 19004KT 150V210 9999 BKN007 OVC025 16/16 Q1022

TAF TAF LIMF
Valido dal 21 a 18 ore il 22 a 18 ore UTC


211700Z 2118/2218 08006KT 2000 RA BKN010 OVC020
PROB40
TEMPO 2118/2122 1500 TSRA



MetMap, La meteo Aeronautica in un colpo d'occhio ! - Copyright ORBIFLY Dicembre 2007 - Disclaimer

ORBIFLY MET'MAP TEAM :

Programmazione e sviluppo : Alexandra Zaïnal
Concezione e sviluppo : Baudouin d'Aumeries
Co-Programmazione e sviluppo : Marc-Olivier Méhu
Supporto tecnico e logistico : Manuel Goepfert
Aiuto per la traduzione : Arnaldo La Scala

Contatto : metmap@orbifly.com




FONTI E CREDITI :

   NOAA